Humidity-temperature Sensor

Selected Measurement Type: Air Temperature

 
Air Temperature [°C]     6 entries per hour
Showing data from 6/28/2019 (00:00:00 Z) to 6/25/2019 (00:01:00 Z)
Previous Next [ Day | 3-Days | 7-Days ]
First Last
Prev [ Day | 3-Days | 7-Days ] Next
First Last

Start Time:     :
End Time:     :     
Time (in GMT) :00 :50 :40 :30 :20 :10
Previous Next [ Day | 3-Days | 7-Days ]
First Last
Prev [ Day | 3-Days | 7-Days ] Next
First Last


123 => good data
MM => data is determined as missing
-- => data not received/configured
Back to Top Back to Top
6/28/2019 00:00 to 23:10 26.52 26.59 26.59 26.44 26.19 26.37
6/27/2019 23:00 to 22:10 26.38 26.05 25.92 25.90 26.12 25.98
6/27/2019 22:00 to 21:10 25.87 25.87 25.86 25.71 25.75 25.49
6/27/2019 21:00 to 20:10 25.12 25.03 25.10 24.97 24.94 25.08
6/27/2019 20:00 to 19:10 25.05 24.99 25.08 25.14 25.07 25.07
6/27/2019 19:00 to 18:10 25.05 25.20 25.08 25.17 25.17 24.97
6/27/2019 18:00 to 17:10 25.05 25.02 24.89 24.99 25.22 25.19
6/27/2019 17:00 to 16:10 25.15 25.29 25.45 25.22 25.27 25.28
6/27/2019 16:00 to 15:10 25.16 25.03 25.00 25.10 24.99 25.12
6/27/2019 15:00 to 14:10 25.18 25.04 25.06 25.12 25.32 25.03
6/27/2019 14:00 to 13:10 24.90 25.03 24.93 24.72 25.31 25.53
6/27/2019 13:00 to 12:10 25.74 25.37 25.51 25.70 25.96 26.07
6/27/2019 12:00 to 11:10 26.18 26.41 26.32 26.35 26.37 26.51
6/27/2019 11:00 to 10:10 26.56 26.33 26.34 26.17 25.85 25.76
6/27/2019 10:00 to 9:10 25.56 25.42 25.93 26.68 26.14 26.21
6/27/2019 09:00 to 8:10 26.17 26.18 26.23 26.26 26.31 26.44
6/27/2019 08:00 to 7:10 26.41 26.62 26.86 26.88 27.03 27.07
6/27/2019 07:00 to 6:10 27.02 27.11 26.91 26.84 26.98 26.75
6/27/2019 06:00 to 5:10 26.73 26.88 26.72 26.61 26.26 26.15
6/27/2019 05:00 to 4:10 25.97 25.90 25.89 25.66 25.63 25.66
6/27/2019 04:00 to 3:10 25.82 25.91 25.72 25.81 25.95 26.13
6/27/2019 03:00 to 2:10 26.20 26.14 26.35 26.31 26.41 26.61
6/27/2019 02:00 to 1:10 26.54 26.61 26.74 26.61 26.60 26.55
6/27/2019 01:00 to 0:10 26.44 26.57 26.44 26.49 26.48 26.15
6/27/2019 00:00 to 23:10 26.34 26.42 26.48 26.45 26.47 26.53
6/26/2019 23:00 to 22:10 26.55 26.42 26.37 26.21 26.26 26.25
6/26/2019 22:00 to 21:10 26.23 26.27 26.17 26.13 26.23 26.18
6/26/2019 21:00 to 20:10 26.17 26.01 25.81 25.79 25.88 25.77
6/26/2019 20:00 to 19:10 25.85 25.76 26.06 25.91 25.73 25.53
6/26/2019 19:00 to 18:10 25.63 25.57 25.49 25.84 25.69 25.83
6/26/2019 18:00 to 17:10 25.83 26.14 26.33 26.28 26.32 26.34
6/26/2019 17:00 to 16:10 26.08 26.13 26.07 26.11 26.14 26.23
6/26/2019 16:00 to 15:10 26.08 26.16 26.18 26.13 25.98 25.94
6/26/2019 15:00 to 14:10 25.79 25.69 25.82 25.70 25.64 25.59
6/26/2019 14:00 to 13:10 25.64 25.57 25.57 25.64 25.60 25.83
6/26/2019 13:00 to 12:10 25.78 25.76 26.33 26.44 26.29 26.20
6/26/2019 12:00 to 11:10 26.24 26.33 26.72 26.74 26.75 26.71
6/26/2019 11:00 to 10:10 26.75 26.58 26.42 26.35 26.32 26.46
6/26/2019 10:00 to 9:10 26.42 26.61 26.87 26.78 26.75 26.84
6/26/2019 09:00 to 8:10 26.81 26.83 26.89 26.82 27.02 26.89
6/26/2019 08:00 to 7:10 26.96 26.89 26.92 26.91 26.94 26.90
6/26/2019 07:00 to 6:10 26.90 26.97 26.89 26.88 26.90 26.87
6/26/2019 06:00 to 5:10 26.88 26.86 26.93 26.91 26.97 26.90
6/26/2019 05:00 to 4:10 26.89 26.86 26.81 26.85 26.77 26.81
6/26/2019 04:00 to 3:10 26.67 26.58 26.71 26.62 26.58 26.53
6/26/2019 03:00 to 2:10 26.59 26.28 26.40 26.21 26.13 26.42
6/26/2019 02:00 to 1:10 26.71 26.70 26.69 26.65 26.61 26.67
6/26/2019 01:00 to 0:10 26.52 26.50 26.23 26.32 26.01 25.72
6/26/2019 00:00 to 23:10 25.90 26.31 27.11 27.04 27.07 27.07
6/25/2019 23:00 to 22:10 27.21 27.11 27.08 27.09 27.17 27.21
6/25/2019 22:00 to 21:10 27.02 27.05 27.02 27.04 27.06 27.04
6/25/2019 21:00 to 20:10 27.00 27.08 27.14 27.11 27.14 27.07
6/25/2019 20:00 to 19:10 27.05 26.97 26.99 27.12 27.01 27.02
6/25/2019 19:00 to 18:10 27.03 27.02 26.98 26.97 26.96 26.97
6/25/2019 18:00 to 17:10 26.94 26.83 26.88 26.89 26.86 26.86
6/25/2019 17:00 to 16:10 26.90 26.92 26.95 26.90 27.03 26.91
6/25/2019 16:00 to 15:10 26.81 26.90 26.83 26.85 26.82 26.82
6/25/2019 15:00 to 14:10 26.86 26.83 26.71 26.69 26.60 26.54
6/25/2019 14:00 to 13:10 26.58 26.55 26.48 26.48 26.59 26.66
6/25/2019 13:00 to 12:10 26.74 26.67 26.65 26.74 26.66 26.61
6/25/2019 12:00 to 11:10 26.56 26.64 26.56 26.61 26.59 26.54
6/25/2019 11:00 to 10:10 26.53 26.55 26.56 26.53 26.60 26.63
6/25/2019 10:00 to 9:10 26.65 26.59 26.62 26.54 26.71 26.61
6/25/2019 09:00 to 8:10 26.66 26.64 26.63 26.59 26.51 26.56
6/25/2019 08:00 to 7:10 26.61 26.55 26.55 26.52 26.65 26.67
6/25/2019 07:00 to 6:10 26.72 26.69 26.62 26.54 26.51 26.58
6/25/2019 06:00 to 5:10 26.68 26.69 26.68 26.72 26.71 26.68
6/25/2019 05:00 to 4:10 26.68 26.71 26.73 26.75 26.75 26.68
6/25/2019 04:00 to 3:10 26.65 26.70 26.75 26.67 26.74 26.67
6/25/2019 03:00 to 2:10 26.78 26.67 26.63 26.54 26.50 26.46
6/25/2019 02:00 to 1:10 26.34 26.29 26.30 26.35 26.32 26.32
6/25/2019 01:00 to 0:10 26.74 26.61 26.38 26.41 26.67 26.66